sensor_id;sensor_type;location;lat;lon;timestamp;P1;durP1;ratioP1;P2;durP2;ratioP2
13649;SDS011;6898;50.918;4.688;2022-09-03T00:00:01;4.38;;;2.67;;
13649;SDS011;6898;50.918;4.688;2022-09-03T00:02:33;4.22;;;2.80;;
13649;SDS011;6898;50.918;4.688;2022-09-03T00:05:04;3.47;;;2.50;;
13649;SDS011;6898;50.918;4.688;2022-09-03T00:07:38;5.07;;;2.80;;
13649;SDS011;6898;50.918;4.688;2022-09-03T00:10:10;4.43;;;2.73;;
13649;SDS011;6898;50.918;4.688;2022-09-03T00:12:40;3.08;;;2.72;;
13649;SDS011;6898;50.918;4.688;2022-09-03T00:15:10;4.57;;;2.63;;
13649;SDS011;6898;50.918;4.688;2022-09-03T00:17:41;4.75;;;2.63;;
13649;SDS011;6898;50.918;4.688;2022-09-03T00:20:11;3.40;;;2.40;;
13649;SDS011;6898;50.918;4.688;2022-09-03T00:22:42;3.50;;;2.80;;
13649;SDS011;6898;50.918;4.688;2022-09-03T00:25:12;5.82;;;2.60;;
13649;SDS011;6898;50.918;4.688;2022-09-03T00:27:42;5.07;;;2.67;;
13649;SDS011;6898;50.918;4.688;2022-09-03T00:30:12;4.28;;;2.60;;
13649;SDS011;6898;50.918;4.688;2022-09-03T00:32:41;2.90;;;2.60;;
13649;SDS011;6898;50.918;4.688;2022-09-03T00:35:13;4.47;;;2.65;;
13649;SDS011;6898;50.918;4.688;2022-09-03T00:37:44;2.70;;;2.30;;
13649;SDS011;6898;50.918;4.688;2022-09-03T00:40:16;4.88;;;2.60;;
13649;SDS011;6898;50.918;4.688;2022-09-03T00:42:52;4.15;;;2.47;;
13649;SDS011;6898;50.918;4.688;2022-09-03T00:45:24;4.43;;;2.67;;
13649;SDS011;6898;50.918;4.688;2022-09-03T00:47:59;3.80;;;2.40;;
13649;SDS011;6898;50.918;4.688;2022-09-03T00:50:34;4.72;;;2.60;;
13649;SDS011;6898;50.918;4.688;2022-09-03T00:53:09;4.90;;;2.60;;
13649;SDS011;6898;50.918;4.688;2022-09-03T00:55:42;5.20;;;2.83;;
13649;SDS011;6898;50.918;4.688;2022-09-03T00:58:18;4.22;;;2.50;;
13649;SDS011;6898;50.918;4.688;2022-09-03T01:00:49;3.75;;;2.55;;
13649;SDS011;6898;50.918;4.688;2022-09-03T01:03:21;3.63;;;2.50;;
13649;SDS011;6898;50.918;4.688;2022-09-03T01:05:56;2.85;;;2.58;;
13649;SDS011;6898;50.918;4.688;2022-09-03T01:08:37;4.25;;;2.67;;
13649;SDS011;6898;50.918;4.688;2022-09-03T01:11:11;4.00;;;2.63;;
13649;SDS011;6898;50.918;4.688;2022-09-03T01:13:46;4.10;;;2.50;;
13649;SDS011;6898;50.918;4.688;2022-09-03T01:16:18;3.97;;;2.50;;
13649;SDS011;6898;50.918;4.688;2022-09-03T01:18:51;4.17;;;2.60;;
13649;SDS011;6898;50.918;4.688;2022-09-03T01:21:35;4.35;;;2.50;;
13649;SDS011;6898;50.918;4.688;2022-09-03T01:24:24;4.60;;;2.55;;
13649;SDS011;6898;50.918;4.688;2022-09-03T01:27:03;3.40;;;2.50;;
13649;SDS011;6898;50.918;4.688;2022-09-03T01:29:38;3.28;;;2.38;;
13649;SDS011;6898;50.918;4.688;2022-09-03T01:32:12;6.47;;;2.40;;
13649;SDS011;6898;50.918;4.688;2022-09-03T01:34:48;5.43;;;2.43;;
13649;SDS011;6898;50.918;4.688;2022-09-03T01:37:23;6.25;;;2.55;;
13649;SDS011;6898;50.918;4.688;2022-09-03T01:39:57;5.10;;;2.50;;
13649;SDS011;6898;50.918;4.688;2022-09-03T01:42:31;3.92;;;2.47;;
13649;SDS011;6898;50.918;4.688;2022-09-03T01:45:05;4.35;;;2.30;;
13649;SDS011;6898;50.918;4.688;2022-09-03T01:47:40;4.65;;;2.42;;
13649;SDS011;6898;50.918;4.688;2022-09-03T01:50:14;3.45;;;2.45;;
13649;SDS011;6898;50.918;4.688;2022-09-03T01:52:49;4.78;;;2.55;;
13649;SDS011;6898;50.918;4.688;2022-09-03T01:55:23;5.17;;;2.50;;
13649;SDS011;6898;50.918;4.688;2022-09-03T01:57:55;5.32;;;2.40;;
13649;SDS011;6898;50.918;4.688;2022-09-03T02:00:27;5.30;;;2.70;;
13649;SDS011;6898;50.918;4.688;2022-09-03T02:02:59;4.63;;;2.73;;
13649;SDS011;6898;50.918;4.688;2022-09-03T02:05:31;5.43;;;2.80;;
13649;SDS011;6898;50.918;4.688;2022-09-03T02:08:04;4.38;;;2.40;;
13649;SDS011;6898;50.918;4.688;2022-09-03T02:10:33;4.60;;;2.63;;
13649;SDS011;6898;50.918;4.688;2022-09-03T02:13:06;5.20;;;2.60;;
13649;SDS011;6898;50.918;4.688;2022-09-03T02:15:37;3.42;;;2.60;;
13649;SDS011;6898;50.918;4.688;2022-09-03T02:18:09;4.30;;;2.75;;
13649;SDS011;6898;50.918;4.688;2022-09-03T02:20:39;5.00;;;2.55;;
13649;SDS011;6898;50.918;4.688;2022-09-03T02:23:07;6.47;;;2.45;;
13649;SDS011;6898;50.918;4.688;2022-09-03T02:25:37;4.95;;;2.40;;
13649;SDS011;6898;50.918;4.688;2022-09-03T02:28:06;3.10;;;2.50;;
13649;SDS011;6898;50.918;4.688;2022-09-03T02:30:37;4.63;;;2.47;;
13649;SDS011;6898;50.918;4.688;2022-09-03T02:33:05;5.88;;;2.60;;
13649;SDS011;6898;50.918;4.688;2022-09-03T02:35:34;3.20;;;2.45;;
13649;SDS011;6898;50.918;4.688;2022-09-03T02:38:09;3.72;;;2.45;;
13649;SDS011;6898;50.918;4.688;2022-09-03T02:40:38;6.20;;;2.47;;
13649;SDS011;6898;50.918;4.688;2022-09-03T02:43:08;3.87;;;2.40;;
13649;SDS011;6898;50.918;4.688;2022-09-03T02:45:41;3.75;;;2.50;;
13649;SDS011;6898;50.918;4.688;2022-09-03T02:48:10;4.18;;;2.50;;
13649;SDS011;6898;50.918;4.688;2022-09-03T02:50:39;3.63;;;2.50;;
13649;SDS011;6898;50.918;4.688;2022-09-03T02:53:08;6.88;;;2.40;;
13649;SDS011;6898;50.918;4.688;2022-09-03T02:55:36;4.50;;;2.70;;
13649;SDS011;6898;50.918;4.688;2022-09-03T02:58:05;5.32;;;2.67;;
13649;SDS011;6898;50.918;4.688;2022-09-03T03:00:34;4.78;;;2.45;;
13649;SDS011;6898;50.918;4.688;2022-09-03T03:03:04;3.67;;;2.40;;
13649;SDS011;6898;50.918;4.688;2022-09-03T03:05:35;3.72;;;2.42;;
13649;SDS011;6898;50.918;4.688;2022-09-03T03:08:06;5.15;;;2.50;;
13649;SDS011;6898;50.918;4.688;2022-09-03T03:10:35;22.20;;;3.40;;
13649;SDS011;6898;50.918;4.688;2022-09-03T03:13:04;3.95;;;2.53;;
13649;SDS011;6898;50.918;4.688;2022-09-03T03:15:32;5.97;;;2.53;;
13649;SDS011;6898;50.918;4.688;2022-09-03T03:18:00;5.55;;;2.38;;
13649;SDS011;6898;50.918;4.688;2022-09-03T03:20:30;3.17;;;2.50;;
13649;SDS011;6898;50.918;4.688;2022-09-03T03:23:00;4.05;;;2.50;;
13649;SDS011;6898;50.918;4.688;2022-09-03T03:25:30;3.67;;;2.50;;
13649;SDS011;6898;50.918;4.688;2022-09-03T03:27:59;4.45;;;2.50;;
13649;SDS011;6898;50.918;4.688;2022-09-03T03:30:27;3.97;;;2.50;;
13649;SDS011;6898;50.918;4.688;2022-09-03T03:32:56;7.07;;;2.58;;
13649;SDS011;6898;50.918;4.688;2022-09-03T03:35:24;3.77;;;2.57;;
13649;SDS011;6898;50.918;4.688;2022-09-03T03:37:56;4.28;;;2.53;;
13649;SDS011;6898;50.918;4.688;2022-09-03T03:40:24;4.13;;;2.55;;
13649;SDS011;6898;50.918;4.688;2022-09-03T03:42:53;5.55;;;2.40;;
13649;SDS011;6898;50.918;4.688;2022-09-03T03:45:21;5.13;;;2.60;;
13649;SDS011;6898;50.918;4.688;2022-09-03T03:47:50;5.00;;;2.60;;
13649;SDS011;6898;50.918;4.688;2022-09-03T03:50:18;3.95;;;2.50;;
13649;SDS011;6898;50.918;4.688;2022-09-03T03:52:47;4.47;;;2.40;;
13649;SDS011;6898;50.918;4.688;2022-09-03T03:55:16;5.72;;;2.60;;
13649;SDS011;6898;50.918;4.688;2022-09-03T03:57:45;3.10;;;2.30;;
13649;SDS011;6898;50.918;4.688;2022-09-03T04:00:14;3.92;;;2.30;;
13649;SDS011;6898;50.918;4.688;2022-09-03T04:02:42;4.22;;;2.30;;
13649;SDS011;6898;50.918;4.688;2022-09-03T04:05:12;4.10;;;2.40;;
13649;SDS011;6898;50.918;4.688;2022-09-03T04:07:40;2.50;;;2.30;;
13649;SDS011;6898;50.918;4.688;2022-09-03T04:10:10;3.75;;;2.20;;
13649;SDS011;6898;50.918;4.688;2022-09-03T04:12:40;2.97;;;2.50;;
13649;SDS011;6898;50.918;4.688;2022-09-03T04:15:09;9.10;;;3.13;;
13649;SDS011;6898;50.918;4.688;2022-09-03T04:17:37;9.10;;;2.70;;
13649;SDS011;6898;50.918;4.688;2022-09-03T04:20:06;10.63;;;2.50;;
13649;SDS011;6898;50.918;4.688;2022-09-03T04:22:34;5.33;;;2.40;;
13649;SDS011;6898;50.918;4.688;2022-09-03T04:25:03;5.93;;;2.88;;
13649;SDS011;6898;50.918;4.688;2022-09-03T04:27:32;6.32;;;2.70;;
13649;SDS011;6898;50.918;4.688;2022-09-03T04:30:02;4.90;;;2.92;;
13649;SDS011;6898;50.918;4.688;2022-09-03T04:32:30;4.75;;;2.58;;
13649;SDS011;6898;50.918;4.688;2022-09-03T04:35:16;5.35;;;2.65;;
13649;SDS011;6898;50.918;4.688;2022-09-03T04:37:46;4.35;;;2.42;;
13649;SDS011;6898;50.918;4.688;2022-09-03T04:40:14;5.07;;;2.60;;
13649;SDS011;6898;50.918;4.688;2022-09-03T04:42:43;3.92;;;2.70;;
13649;SDS011;6898;50.918;4.688;2022-09-03T04:45:13;5.87;;;2.70;;
13649;SDS011;6898;50.918;4.688;2022-09-03T04:47:44;4.28;;;2.58;;
13649;SDS011;6898;50.918;4.688;2022-09-03T04:50:12;5.80;;;2.70;;
13649;SDS011;6898;50.918;4.688;2022-09-03T04:52:41;5.97;;;2.90;;
13649;SDS011;6898;50.918;4.688;2022-09-03T04:55:10;4.22;;;2.63;;
13649;SDS011;6898;50.918;4.688;2022-09-03T04:57:39;3.15;;;2.70;;
13649;SDS011;6898;50.918;4.688;2022-09-03T05:00:09;4.47;;;2.50;;
13649;SDS011;6898;50.918;4.688;2022-09-03T05:02:39;8.10;;;3.28;;
13649;SDS011;6898;50.918;4.688;2022-09-03T05:05:07;8.27;;;2.80;;
13649;SDS011;6898;50.918;4.688;2022-09-03T05:07:36;6.47;;;2.67;;
13649;SDS011;6898;50.918;4.688;2022-09-03T05:10:06;4.15;;;2.60;;
13649;SDS011;6898;50.918;4.688;2022-09-03T05:12:35;3.78;;;2.50;;
13649;SDS011;6898;50.918;4.688;2022-09-03T05:15:04;3.30;;;2.40;;
13649;SDS011;6898;50.918;4.688;2022-09-03T05:17:33;4.05;;;2.58;;
13649;SDS011;6898;50.918;4.688;2022-09-03T05:20:05;2.92;;;2.33;;
13649;SDS011;6898;50.918;4.688;2022-09-03T05:22:35;3.22;;;2.53;;
13649;SDS011;6898;50.918;4.688;2022-09-03T05:25:04;2.70;;;2.40;;
13649;SDS011;6898;50.918;4.688;2022-09-03T05:27:32;5.77;;;2.47;;
13649;SDS011;6898;50.918;4.688;2022-09-03T05:30:01;5.00;;;2.70;;
13649;SDS011;6898;50.918;4.688;2022-09-03T05:32:30;4.15;;;2.40;;
13649;SDS011;6898;50.918;4.688;2022-09-03T05:35:00;4.65;;;2.50;;
13649;SDS011;6898;50.918;4.688;2022-09-03T05:37:29;5.43;;;2.65;;
13649;SDS011;6898;50.918;4.688;2022-09-03T05:39:58;81.50;;;5.53;;
13649;SDS011;6898;50.918;4.688;2022-09-03T05:42:26;4.53;;;2.58;;
13649;SDS011;6898;50.918;4.688;2022-09-03T05:44:57;4.00;;;2.50;;
13649;SDS011;6898;50.918;4.688;2022-09-03T05:47:26;5.22;;;2.78;;
13649;SDS011;6898;50.918;4.688;2022-09-03T05:49:54;3.17;;;2.40;;
13649;SDS011;6898;50.918;4.688;2022-09-03T05:52:23;4.72;;;2.50;;
13649;SDS011;6898;50.918;4.688;2022-09-03T05:54:53;3.90;;;2.47;;
13649;SDS011;6898;50.918;4.688;2022-09-03T05:57:21;4.32;;;2.42;;
13649;SDS011;6898;50.918;4.688;2022-09-03T05:59:50;3.22;;;2.30;;
13649;SDS011;6898;50.918;4.688;2022-09-03T06:02:18;5.13;;;2.30;;
13649;SDS011;6898;50.918;4.688;2022-09-03T06:04:50;4.57;;;2.35;;
13649;SDS011;6898;50.918;4.688;2022-09-03T06:07:19;6.30;;;2.50;;
13649;SDS011;6898;50.918;4.688;2022-09-03T06:09:47;4.78;;;2.40;;
13649;SDS011;6898;50.918;4.688;2022-09-03T06:12:17;3.90;;;2.40;;
13649;SDS011;6898;50.918;4.688;2022-09-03T06:14:46;4.28;;;2.55;;
13649;SDS011;6898;50.918;4.688;2022-09-03T06:17:14;6.57;;;2.47;;
13649;SDS011;6898;50.918;4.688;2022-09-03T06:19:42;4.18;;;2.85;;
13649;SDS011;6898;50.918;4.688;2022-09-03T06:22:11;4.38;;;2.40;;
13649;SDS011;6898;50.918;4.688;2022-09-03T06:24:40;4.65;;;2.42;;
13649;SDS011;6898;50.918;4.688;2022-09-03T06:27:08;5.55;;;2.65;;
13649;SDS011;6898;50.918;4.688;2022-09-03T06:29:38;4.00;;;2.30;;
13649;SDS011;6898;50.918;4.688;2022-09-03T06:32:07;4.32;;;2.40;;
13649;SDS011;6898;50.918;4.688;2022-09-03T06:34:35;3.30;;;2.30;;
13649;SDS011;6898;50.918;4.688;2022-09-03T06:37:04;4.55;;;2.50;;
13649;SDS011;6898;50.918;4.688;2022-09-03T06:39:33;3.22;;;2.15;;
13649;SDS011;6898;50.918;4.688;2022-09-03T06:42:02;4.10;;;2.40;;
13649;SDS011;6898;50.918;4.688;2022-09-03T06:44:31;4.18;;;2.60;;
13649;SDS011;6898;50.918;4.688;2022-09-03T06:47:01;4.13;;;2.60;;
13649;SDS011;6898;50.918;4.688;2022-09-03T06:49:29;6.55;;;2.70;;
13649;SDS011;6898;50.918;4.688;2022-09-03T06:51:58;3.55;;;2.50;;
13649;SDS011;6898;50.918;4.688;2022-09-03T06:54:26;5.13;;;2.60;;
13649;SDS011;6898;50.918;4.688;2022-09-03T06:56:55;4.70;;;2.53;;
13649;SDS011;6898;50.918;4.688;2022-09-03T06:59:24;6.30;;;2.50;;
13649;SDS011;6898;50.918;4.688;2022-09-03T07:01:52;5.43;;;2.83;;
13649;SDS011;6898;50.918;4.688;2022-09-03T07:04:22;5.55;;;2.60;;
13649;SDS011;6898;50.918;4.688;2022-09-03T07:06:52;5.55;;;2.70;;
13649;SDS011;6898;50.918;4.688;2022-09-03T07:09:21;5.80;;;2.72;;
13649;SDS011;6898;50.918;4.688;2022-09-03T07:11:49;5.30;;;2.63;;
13649;SDS011;6898;50.918;4.688;2022-09-03T07:14:18;5.72;;;2.67;;
13649;SDS011;6898;50.918;4.688;2022-09-03T07:16:47;6.13;;;2.77;;
13649;SDS011;6898;50.918;4.688;2022-09-03T07:19:16;6.40;;;2.60;;
13649;SDS011;6898;50.918;4.688;2022-09-03T07:21:46;5.40;;;2.70;;
13649;SDS011;6898;50.918;4.688;2022-09-03T07:24:16;3.53;;;2.50;;
13649;SDS011;6898;50.918;4.688;2022-09-03T07:26:44;5.28;;;2.60;;
13649;SDS011;6898;50.918;4.688;2022-09-03T07:29:14;3.28;;;2.50;;
13649;SDS011;6898;50.918;4.688;2022-09-03T07:31:45;4.63;;;2.40;;
13649;SDS011;6898;50.918;4.688;2022-09-03T07:34:16;4.35;;;2.50;;
13649;SDS011;6898;50.918;4.688;2022-09-03T07:36:46;4.28;;;2.40;;
13649;SDS011;6898;50.918;4.688;2022-09-03T07:39:16;3.63;;;2.47;;
13649;SDS011;6898;50.918;4.688;2022-09-03T07:41:45;7.82;;;2.95;;
13649;SDS011;6898;50.918;4.688;2022-09-03T07:44:14;5.82;;;2.53;;
13649;SDS011;6898;50.918;4.688;2022-09-03T07:46:46;4.23;;;2.50;;
13649;SDS011;6898;50.918;4.688;2022-09-03T07:49:16;3.65;;;2.50;;
13649;SDS011;6898;50.918;4.688;2022-09-03T07:51:46;5.45;;;2.70;;
13649;SDS011;6898;50.918;4.688;2022-09-03T07:54:18;5.20;;;2.60;;
13649;SDS011;6898;50.918;4.688;2022-09-03T07:56:47;8.00;;;2.78;;
13649;SDS011;6898;50.918;4.688;2022-09-03T07:59:15;5.70;;;2.90;;
13649;SDS011;6898;50.918;4.688;2022-09-03T08:01:44;6.88;;;2.80;;
13649;SDS011;6898;50.918;4.688;2022-09-03T08:04:13;5.88;;;2.63;;
13649;SDS011;6898;50.918;4.688;2022-09-03T08:06:41;5.35;;;2.55;;
13649;SDS011;6898;50.918;4.688;2022-09-03T08:09:12;5.88;;;2.53;;
13649;SDS011;6898;50.918;4.688;2022-09-03T08:11:41;5.32;;;2.97;;
13649;SDS011;6898;50.918;4.688;2022-09-03T08:14:10;10.02;;;2.80;;
13649;SDS011;6898;50.918;4.688;2022-09-03T08:16:40;5.65;;;2.55;;
13649;SDS011;6898;50.918;4.688;2022-09-03T08:19:08;5.07;;;2.63;;
13649;SDS011;6898;50.918;4.688;2022-09-03T08:21:38;6.13;;;2.90;;
13649;SDS011;6898;50.918;4.688;2022-09-03T08:24:08;5.50;;;2.80;;
13649;SDS011;6898;50.918;4.688;2022-09-03T08:26:38;4.70;;;2.73;;
13649;SDS011;6898;50.918;4.688;2022-09-03T08:29:09;7.93;;;2.70;;
13649;SDS011;6898;50.918;4.688;2022-09-03T08:31:38;5.35;;;2.67;;
13649;SDS011;6898;50.918;4.688;2022-09-03T08:34:06;4.78;;;2.70;;
13649;SDS011;6898;50.918;4.688;2022-09-03T08:36:37;7.13;;;3.03;;
13649;SDS011;6898;50.918;4.688;2022-09-03T08:39:07;5.78;;;2.75;;
13649;SDS011;6898;50.918;4.688;2022-09-03T08:41:44;8.13;;;2.78;;
13649;SDS011;6898;50.918;4.688;2022-09-03T08:44:19;4.70;;;2.80;;
13649;SDS011;6898;50.918;4.688;2022-09-03T08:46:49;5.50;;;3.00;;
13649;SDS011;6898;50.918;4.688;2022-09-03T08:49:23;7.18;;;2.80;;
13649;SDS011;6898;50.918;4.688;2022-09-03T08:51:54;5.25;;;2.70;;
13649;SDS011;6898;50.918;4.688;2022-09-03T08:54:25;5.30;;;2.47;;
13649;SDS011;6898;50.918;4.688;2022-09-03T08:56:55;6.32;;;2.80;;
13649;SDS011;6898;50.918;4.688;2022-09-03T08:59:26;5.72;;;3.00;;
13649;SDS011;6898;50.918;4.688;2022-09-03T09:01:56;4.90;;;3.03;;
13649;SDS011;6898;50.918;4.688;2022-09-03T09:04:31;5.20;;;2.60;;
13649;SDS011;6898;50.918;4.688;2022-09-03T09:07:05;6.25;;;2.90;;
13649;SDS011;6898;50.918;4.688;2022-09-03T09:09:38;3.30;;;2.80;;
13649;SDS011;6898;50.918;4.688;2022-09-03T09:12:12;4.72;;;2.90;;
13649;SDS011;6898;50.918;4.688;2022-09-03T09:14:44;4.15;;;3.00;;
13649;SDS011;6898;50.918;4.688;2022-09-03T09:17:19;5.70;;;3.03;;
13649;SDS011;6898;50.918;4.688;2022-09-03T09:19:55;4.00;;;2.72;;
13649;SDS011;6898;50.918;4.688;2022-09-03T09:22:29;5.80;;;3.00;;
13649;SDS011;6898;50.918;4.688;2022-09-03T09:25:00;4.32;;;3.03;;
13649;SDS011;6898;50.918;4.688;2022-09-03T09:27:31;4.85;;;3.05;;
13649;SDS011;6898;50.918;4.688;2022-09-03T09:30:00;3.95;;;3.10;;
13649;SDS011;6898;50.918;4.688;2022-09-03T09:32:31;5.78;;;3.00;;
13649;SDS011;6898;50.918;4.688;2022-09-03T09:35:07;6.53;;;3.10;;
13649;SDS011;6898;50.918;4.688;2022-09-03T09:37:45;5.23;;;3.30;;
13649;SDS011;6898;50.918;4.688;2022-09-03T09:40:21;6.13;;;3.30;;
13649;SDS011;6898;50.918;4.688;2022-09-03T09:43:01;4.97;;;3.50;;
13649;SDS011;6898;50.918;4.688;2022-09-03T09:45:29;6.63;;;3.20;;
13649;SDS011;6898;50.918;4.688;2022-09-03T09:47:59;3.92;;;3.38;;
13649;SDS011;6898;50.918;4.688;2022-09-03T09:50:30;4.63;;;3.40;;
13649;SDS011;6898;50.918;4.688;2022-09-03T09:52:59;6.10;;;3.50;;
13649;SDS011;6898;50.918;4.688;2022-09-03T09:55:32;5.57;;;3.60;;
13649;SDS011;6898;50.918;4.688;2022-09-03T09:58:05;4.05;;;3.45;;
13649;SDS011;6898;50.918;4.688;2022-09-03T10:00:38;4.47;;;3.42;;
13649;SDS011;6898;50.918;4.688;2022-09-03T10:03:09;4.07;;;3.47;;
13649;SDS011;6898;50.918;4.688;2022-09-03T10:05:39;4.72;;;3.38;;
13649;SDS011;6898;50.918;4.688;2022-09-03T10:08:17;3.63;;;3.20;;
13649;SDS011;6898;50.918;4.688;2022-09-03T10:10:47;6.15;;;4.68;;
13649;SDS011;6898;50.918;4.688;2022-09-03T10:13:18;6.50;;;3.78;;
13649;SDS011;6898;50.918;4.688;2022-09-03T10:15:47;5.38;;;3.80;;
13649;SDS011;6898;50.918;4.688;2022-09-03T10:18:18;4.30;;;3.70;;
13649;SDS011;6898;50.918;4.688;2022-09-03T10:20:55;4.63;;;4.00;;
13649;SDS011;6898;50.918;4.688;2022-09-03T10:23:26;4.53;;;3.70;;
13649;SDS011;6898;50.918;4.688;2022-09-03T10:25:57;5.63;;;3.80;;
13649;SDS011;6898;50.918;4.688;2022-09-03T10:28:34;5.28;;;3.75;;
13649;SDS011;6898;50.918;4.688;2022-09-03T10:33:59;8.00;;;3.80;;
13649;SDS011;6898;50.918;4.688;2022-09-03T10:36:30;4.15;;;3.70;;
13649;SDS011;6898;50.918;4.688;2022-09-03T10:39:01;6.88;;;3.90;;
13649;SDS011;6898;50.918;4.688;2022-09-03T10:41:39;4.53;;;3.72;;
13649;SDS011;6898;50.918;4.688;2022-09-03T10:44:17;3.83;;;3.50;;
13649;SDS011;6898;50.918;4.688;2022-09-03T10:46:52;5.75;;;3.97;;
13649;SDS011;6898;50.918;4.688;2022-09-03T10:49:28;5.20;;;3.78;;
13649;SDS011;6898;50.918;4.688;2022-09-03T10:52:02;4.93;;;3.80;;
13649;SDS011;6898;50.918;4.688;2022-09-03T10:54:37;4.90;;;3.90;;
13649;SDS011;6898;50.918;4.688;2022-09-03T10:57:11;5.60;;;3.90;;
13649;SDS011;6898;50.918;4.688;2022-09-03T10:59:52;7.85;;;4.10;;
13649;SDS011;6898;50.918;4.688;2022-09-03T11:02:35;5.82;;;3.78;;
13649;SDS011;6898;50.918;4.688;2022-09-03T11:05:07;5.20;;;3.70;;
13649;SDS011;6898;50.918;4.688;2022-09-03T11:07:42;7.00;;;3.83;;
13649;SDS011;6898;50.918;4.688;2022-09-03T11:10:14;4.30;;;3.83;;
13649;SDS011;6898;50.918;4.688;2022-09-03T11:12:45;4.60;;;3.63;;
13649;SDS011;6898;50.918;4.688;2022-09-03T11:15:18;4.85;;;3.65;;
13649;SDS011;6898;50.918;4.688;2022-09-03T11:17:54;5.05;;;3.80;;
13649;SDS011;6898;50.918;4.688;2022-09-03T11:20:25;5.38;;;4.00;;
13649;SDS011;6898;50.918;4.688;2022-09-03T11:22:54;3.78;;;3.47;;
13649;SDS011;6898;50.918;4.688;2022-09-03T11:25:26;5.78;;;3.65;;
13649;SDS011;6898;50.918;4.688;2022-09-03T11:27:59;4.57;;;3.80;;
13649;SDS011;6898;50.918;4.688;2022-09-03T11:30:37;5.57;;;3.72;;
13649;SDS011;6898;50.918;4.688;2022-09-03T11:33:07;4.07;;;3.63;;
13649;SDS011;6898;50.918;4.688;2022-09-03T11:35:38;5.47;;;3.88;;
13649;SDS011;6898;50.918;4.688;2022-09-03T11:38:18;7.38;;;5.22;;
13649;SDS011;6898;50.918;4.688;2022-09-03T11:41:00;4.97;;;3.85;;
13649;SDS011;6898;50.918;4.688;2022-09-03T11:43:30;7.40;;;4.10;;
13649;SDS011;6898;50.918;4.688;2022-09-03T11:46:05;5.77;;;4.00;;
13649;SDS011;6898;50.918;4.688;2022-09-03T11:48:38;4.10;;;3.70;;
13649;SDS011;6898;50.918;4.688;2022-09-03T11:51:19;5.80;;;3.88;;
13649;SDS011;6898;50.918;4.688;2022-09-03T11:53:54;5.93;;;4.22;;
13649;SDS011;6898;50.918;4.688;2022-09-03T11:56:24;5.85;;;4.22;;
13649;SDS011;6898;50.918;4.688;2022-09-03T11:58:59;5.13;;;4.50;;
13649;SDS011;6898;50.918;4.688;2022-09-03T12:01:29;6.10;;;4.50;;
13649;SDS011;6898;50.918;4.688;2022-09-03T12:03:59;5.55;;;3.67;;
13649;SDS011;6898;50.918;4.688;2022-09-03T12:06:43;5.20;;;4.30;;
13649;SDS011;6898;50.918;4.688;2022-09-03T12:09:24;4.88;;;3.97;;
13649;SDS011;6898;50.918;4.688;2022-09-03T12:12:03;4.55;;;4.15;;
13649;SDS011;6898;50.918;4.688;2022-09-03T12:14:35;5.20;;;4.25;;
13649;SDS011;6898;50.918;4.688;2022-09-03T12:17:08;4.63;;;4.20;;
13649;SDS011;6898;50.918;4.688;2022-09-03T12:19:40;4.75;;;4.30;;
13649;SDS011;6898;50.918;4.688;2022-09-03T12:22:11;5.43;;;4.20;;
13649;SDS011;6898;50.918;4.688;2022-09-03T12:24:41;5.47;;;4.40;;
13649;SDS011;6898;50.918;4.688;2022-09-03T12:27:10;5.95;;;4.10;;
13649;SDS011;6898;50.918;4.688;2022-09-03T12:29:48;6.20;;;4.35;;
13649;SDS011;6898;50.918;4.688;2022-09-03T12:32:24;4.80;;;4.10;;
13649;SDS011;6898;50.918;4.688;2022-09-03T12:34:53;4.77;;;3.80;;
13649;SDS011;6898;50.918;4.688;2022-09-03T12:37:23;5.50;;;4.00;;
13649;SDS011;6898;50.918;4.688;2022-09-03T12:40:15;6.38;;;4.00;;
13649;SDS011;6898;50.918;4.688;2022-09-03T12:42:44;4.15;;;3.75;;
13649;SDS011;6898;50.918;4.688;2022-09-03T12:45:13;4.43;;;3.97;;
13649;SDS011;6898;50.918;4.688;2022-09-03T12:47:43;7.78;;;4.10;;
13649;SDS011;6898;50.918;4.688;2022-09-03T12:50:12;4.93;;;4.33;;
13649;SDS011;6898;50.918;4.688;2022-09-03T12:52:42;4.37;;;3.97;;
13649;SDS011;6898;50.918;4.688;2022-09-03T12:55:23;4.78;;;3.78;;
13649;SDS011;6898;50.918;4.688;2022-09-03T12:57:54;6.32;;;3.70;;
13649;SDS011;6898;50.918;4.688;2022-09-03T13:00:27;4.30;;;3.90;;
13649;SDS011;6898;50.918;4.688;2022-09-03T13:02:59;5.80;;;3.63;;
13649;SDS011;6898;50.918;4.688;2022-09-03T13:05:30;5.32;;;3.65;;
13649;SDS011;6898;50.918;4.688;2022-09-03T13:08:01;5.35;;;3.67;;
13649;SDS011;6898;50.918;4.688;2022-09-03T13:10:32;5.40;;;3.70;;
13649;SDS011;6898;50.918;4.688;2022-09-03T13:13:06;4.55;;;3.45;;
13649;SDS011;6898;50.918;4.688;2022-09-03T13:15:36;3.92;;;3.13;;
13649;SDS011;6898;50.918;4.688;2022-09-03T13:18:09;5.50;;;3.85;;
13649;SDS011;6898;50.918;4.688;2022-09-03T13:20:47;20.60;;;5.70;;
13649;SDS011;6898;50.918;4.688;2022-09-03T13:23:23;3.17;;;2.88;;
13649;SDS011;6898;50.918;4.688;2022-09-03T13:25:56;4.60;;;3.20;;
13649;SDS011;6898;50.918;4.688;2022-09-03T13:28:34;3.27;;;2.97;;
13649;SDS011;6898;50.918;4.688;2022-09-03T13:31:08;3.73;;;2.90;;
13649;SDS011;6898;50.918;4.688;2022-09-03T13:33:42;3.63;;;3.22;;
13649;SDS011;6898;50.918;4.688;2022-09-03T13:36:12;4.93;;;4.03;;
13649;SDS011;6898;50.918;4.688;2022-09-03T13:38:45;3.50;;;2.90;;
13649;SDS011;6898;50.918;4.688;2022-09-03T13:41:30;3.10;;;2.83;;
13649;SDS011;6898;50.918;4.688;2022-09-03T13:44:02;4.10;;;3.25;;
13649;SDS011;6898;50.918;4.688;2022-09-03T13:46:34;3.60;;;3.30;;
13649;SDS011;6898;50.918;4.688;2022-09-03T13:49:11;4.55;;;3.47;;
13649;SDS011;6898;50.918;4.688;2022-09-03T13:52:03;3.87;;;3.30;;
13649;SDS011;6898;50.918;4.688;2022-09-03T13:54:34;4.00;;;3.25;;
13649;SDS011;6898;50.918;4.688;2022-09-03T13:57:25;3.75;;;3.20;;
13649;SDS011;6898;50.918;4.688;2022-09-03T13:59:57;4.30;;;3.20;;
13649;SDS011;6898;50.918;4.688;2022-09-03T14:02:27;4.18;;;3.33;;
13649;SDS011;6898;50.918;4.688;2022-09-03T14:05:02;6.60;;;5.03;;
13649;SDS011;6898;50.918;4.688;2022-09-03T14:07:43;5.27;;;3.60;;
13649;SDS011;6898;50.918;4.688;2022-09-03T14:10:20;5.63;;;3.58;;
13649;SDS011;6898;50.918;4.688;2022-09-03T14:12:50;5.38;;;3.70;;
13649;SDS011;6898;50.918;4.688;2022-09-03T14:15:21;6.65;;;3.50;;
13649;SDS011;6898;50.918;4.688;2022-09-03T14:17:55;6.47;;;3.57;;
13649;SDS011;6898;50.918;4.688;2022-09-03T14:20:28;5.43;;;3.65;;
13649;SDS011;6898;50.918;4.688;2022-09-03T14:22:58;4.38;;;3.55;;
13649;SDS011;6898;50.918;4.688;2022-09-03T14:25:29;5.60;;;3.40;;
13649;SDS011;6898;50.918;4.688;2022-09-03T14:28:12;4.60;;;3.58;;
13649;SDS011;6898;50.918;4.688;2022-09-03T14:30:42;4.00;;;3.53;;
13649;SDS011;6898;50.918;4.688;2022-09-03T14:33:16;4.10;;;3.70;;
13649;SDS011;6898;50.918;4.688;2022-09-03T14:35:52;4.68;;;3.97;;
13649;SDS011;6898;50.918;4.688;2022-09-03T14:38:30;5.00;;;3.65;;
13649;SDS011;6898;50.918;4.688;2022-09-03T14:41:05;4.78;;;3.60;;
13649;SDS011;6898;50.918;4.688;2022-09-03T14:43:45;4.57;;;3.85;;
13649;SDS011;6898;50.918;4.688;2022-09-03T14:46:17;5.43;;;3.70;;
13649;SDS011;6898;50.918;4.688;2022-09-03T14:49:02;4.55;;;3.53;;
13649;SDS011;6898;50.918;4.688;2022-09-03T14:51:41;4.53;;;3.35;;
13649;SDS011;6898;50.918;4.688;2022-09-03T14:54:24;3.35;;;3.05;;
13649;SDS011;6898;50.918;4.688;2022-09-03T14:56:56;3.60;;;3.30;;
13649;SDS011;6898;50.918;4.688;2022-09-03T14:59:38;4.30;;;3.50;;
13649;SDS011;6898;50.918;4.688;2022-09-03T15:02:18;3.92;;;3.30;;
13649;SDS011;6898;50.918;4.688;2022-09-03T15:04:50;7.15;;;3.60;;
13649;SDS011;6898;50.918;4.688;2022-09-03T15:07:25;6.38;;;5.78;;
13649;SDS011;6898;50.918;4.688;2022-09-03T15:10:00;4.00;;;3.60;;
13649;SDS011;6898;50.918;4.688;2022-09-03T15:12:33;4.60;;;3.30;;
13649;SDS011;6898;50.918;4.688;2022-09-03T15:15:04;5.50;;;3.30;;
13649;SDS011;6898;50.918;4.688;2022-09-03T15:17:46;4.07;;;3.50;;
13649;SDS011;6898;50.918;4.688;2022-09-03T15:20:20;4.00;;;3.40;;
13649;SDS011;6898;50.918;4.688;2022-09-03T15:23:01;4.07;;;3.60;;
13649;SDS011;6898;50.918;4.688;2022-09-03T15:25:32;3.90;;;3.38;;
13649;SDS011;6898;50.918;4.688;2022-09-03T15:28:05;4.10;;;3.47;;
13649;SDS011;6898;50.918;4.688;2022-09-03T15:30:39;6.03;;;3.50;;